< Typhoon 196517 1965 Season Typhoon 196519 >
Typhoon 196518 (MARY)
General InformationTrack Information on Google Maps || Disaster Info.ResourceGoogle EarthGE AnimationAtom FeedGeoJSON
Detalied Best Track (Time Zone = UTC)
Year Month Day Hour Lat. Long. Pressure (hPa) Wind (kt) Class Image Chart
1965 8 14 00 19.8 138.5 1004 0 2 -- Chart
1965 8 14 06 19.8 137.8 998 0 9 -- Chart
1965 8 14 12 19.8 136.9 998 0 9 -- Chart
1965 8 14 18 19.7 136.1 998 0 9 -- Chart
1965 8 15 00 19.7 135.2 996 0 9 -- Chart
1965 8 15 06 19.6 134.4 990 0 9 -- Chart
1965 8 15 12 19.5 133.5 980 0 9 -- Chart
1965 8 15 18 19.5 132.6 980 0 9 -- Chart
1965 8 16 00 19.5 132.4 980 0 9 -- Chart
1965 8 16 06 19.7 132.0 970 0 9 -- Chart
1965 8 16 12 20.2 131.1 965 0 9 -- Chart
1965 8 16 18 20.5 130.4 965 0 9 -- Chart
1965 8 17 00 20.9 129.5 965 0 9 -- Chart
1965 8 17 06 21.4 128.5 950 0 9 -- Chart
1965 8 17 12 22.1 127.5 950 0 9 -- Chart
1965 8 17 18 23.0 126.0 950 0 9 -- Chart
1965 8 18 00 23.6 124.7 950 0 9 -- Chart
1965 8 18 06 24.0 123.8 950 0 9 -- Chart
1965 8 18 12 24.2 122.8 960 0 9 -- Chart
1965 8 18 18 24.3 121.7 965 0 9 -- Chart
1965 8 19 00 24.5 121.1 975 0 9 -- Chart
1965 8 19 06 24.9 120.3 975 0 9 -- Chart
1965 8 19 12 25.2 119.5 980 0 9 -- Chart
1965 8 19 18 25.4 119.0 988 0 9 -- Chart
1965 8 20 00 25.7 118.7 995 0 9 -- Chart
1965 8 20 06 26.5 118.9 998 0 2 -- Chart
1965 8 20 12 27.6 119.0 998 0 2 -- Chart
1965 8 20 18 28.6 119.4 1000 0 2 -- Chart
1965 8 21 00 29.7 119.9 1000 0 2 -- Chart
1965 8 21 06 30.9 120.8 998 0 2 -- Chart
1965 8 21 12 32.3 121.1 998 0 2 -- Chart
1965 8 21 18 33.3 121.5 996 0 2 -- Chart
1965 8 22 00 34.5 122.5 996 0 2 -- Chart
1965 8 22 06 35.5 122.9 998 0 2 -- Chart
1965 8 22 12 36.3 123.2 1000 0 2 -- Chart
1965 8 22 18 37.2 123.5 1000 0 2 -- Chart
1965 8 23 00 38.0 124.0 1002 0 2 -- Chart
1965 8 23 06 38.4 124.2 1004 0 2 -- Chart
1965 8 23 12 38.5 124.6 1004 0 2 -- Chart
1965 8 23 18 38.6 125.0 1005 0 2 -- Chart
1965 8 24 00 42.0 134.0 1003 0 6 -- Chart
1965 8 24 06 43.0 136.0 1000 0 6 -- Chart
1965 8 24 12 44.0 138.0 998 0 6 -- Chart
1965 8 24 18 46.0 140.0 996 0 6 -- Chart
1965 8 25 00 47.0 141.0 998 0 6 -- Chart
Japan Meteorological Agency Best Track Data | Correction Date : 1989-06-01
< Typhoon 196517 1965 Season Typhoon 196519 >

Help